sensor_id;sensor_type;location;lat;lon;timestamp;P1;durP1;ratioP1;P2;durP2;ratioP2
40793;SDS011;26502;51.886;15.604;2023-03-15T00:01:14;8.90;;;2.30;;
40793;SDS011;26502;51.886;15.604;2023-03-15T00:06:21;11.40;;;3.70;;
40793;SDS011;26502;51.886;15.604;2023-03-15T00:11:28;7.10;;;1.80;;
40793;SDS011;26502;51.886;15.604;2023-03-15T00:16:34;7.10;;;1.40;;
40793;SDS011;26502;51.886;15.604;2023-03-15T00:21:40;9.70;;;2.30;;
40793;SDS011;26502;51.886;15.604;2023-03-15T00:26:46;7.20;;;1.60;;
40793;SDS011;26502;51.886;15.604;2023-03-15T00:31:52;5.60;;;1.50;;
40793;SDS011;26502;51.886;15.604;2023-03-15T00:37:00;7.50;;;1.90;;
40793;SDS011;26502;51.886;15.604;2023-03-15T00:42:06;9.40;;;1.30;;
40793;SDS011;26502;51.886;15.604;2023-03-15T00:47:13;13.00;;;3.40;;
40793;SDS011;26502;51.886;15.604;2023-03-15T00:52:19;7.90;;;4.30;;
40793;SDS011;26502;51.886;15.604;2023-03-15T00:57:25;13.20;;;2.80;;
40793;SDS011;26502;51.886;15.604;2023-03-15T01:02:31;11.20;;;4.00;;
40793;SDS011;26502;51.886;15.604;2023-03-15T01:07:39;10.00;;;3.00;;
40793;SDS011;26502;51.886;15.604;2023-03-15T01:12:48;14.40;;;2.30;;
40793;SDS011;26502;51.886;15.604;2023-03-15T01:17:53;14.30;;;1.90;;
40793;SDS011;26502;51.886;15.604;2023-03-15T01:23:02;10.30;;;1.80;;
40793;SDS011;26502;51.886;15.604;2023-03-15T01:28:07;12.90;;;2.90;;
40793;SDS011;26502;51.886;15.604;2023-03-15T01:33:14;8.40;;;1.60;;
40793;SDS011;26502;51.886;15.604;2023-03-15T01:38:20;9.20;;;2.00;;
40793;SDS011;26502;51.886;15.604;2023-03-15T01:43:28;13.70;;;2.40;;
40793;SDS011;26502;51.886;15.604;2023-03-15T01:48:36;8.20;;;1.80;;
40793;SDS011;26502;51.886;15.604;2023-03-15T01:53:47;10.90;;;1.90;;
40793;SDS011;26502;51.886;15.604;2023-03-15T01:58:57;14.00;;;2.40;;
40793;SDS011;26502;51.886;15.604;2023-03-15T02:04:05;8.30;;;2.30;;
40793;SDS011;26502;51.886;15.604;2023-03-15T02:09:17;10.30;;;1.80;;
40793;SDS011;26502;51.886;15.604;2023-03-15T02:14:24;6.00;;;1.60;;
40793;SDS011;26502;51.886;15.604;2023-03-15T02:19:36;6.70;;;1.70;;
40793;SDS011;26502;51.886;15.604;2023-03-15T02:24:51;8.40;;;2.60;;
40793;SDS011;26502;51.886;15.604;2023-03-15T02:30:04;8.70;;;2.30;;
40793;SDS011;26502;51.886;15.604;2023-03-15T02:35:18;5.80;;;2.00;;
40793;SDS011;26502;51.886;15.604;2023-03-15T02:40:28;12.70;;;2.10;;
40793;SDS011;26502;51.886;15.604;2023-03-15T02:45:36;5.80;;;1.80;;
40793;SDS011;26502;51.886;15.604;2023-03-15T02:50:43;8.90;;;1.90;;
40793;SDS011;26502;51.886;15.604;2023-03-15T02:55:51;8.00;;;2.00;;
40793;SDS011;26502;51.886;15.604;2023-03-15T03:00:58;6.90;;;1.90;;
40793;SDS011;26502;51.886;15.604;2023-03-15T03:06:04;8.60;;;1.80;;
40793;SDS011;26502;51.886;15.604;2023-03-15T03:11:12;11.40;;;2.30;;
40793;SDS011;26502;51.886;15.604;2023-03-15T03:16:19;6.60;;;1.50;;
40793;SDS011;26502;51.886;15.604;2023-03-15T03:21:26;10.50;;;2.00;;
40793;SDS011;26502;51.886;15.604;2023-03-15T03:26:32;13.30;;;2.00;;
40793;SDS011;26502;51.886;15.604;2023-03-15T03:31:42;8.10;;;1.90;;
40793;SDS011;26502;51.886;15.604;2023-03-15T03:36:48;10.10;;;2.50;;
40793;SDS011;26502;51.886;15.604;2023-03-15T03:42:03;8.60;;;2.30;;
40793;SDS011;26502;51.886;15.604;2023-03-15T03:47:10;8.40;;;2.80;;
40793;SDS011;26502;51.886;15.604;2023-03-15T03:52:16;9.10;;;2.00;;
40793;SDS011;26502;51.886;15.604;2023-03-15T03:57:24;6.20;;;2.90;;
40793;SDS011;26502;51.886;15.604;2023-03-15T04:02:30;6.50;;;1.90;;
40793;SDS011;26502;51.886;15.604;2023-03-15T04:07:42;12.00;;;2.60;;
40793;SDS011;26502;51.886;15.604;2023-03-15T04:12:51;6.50;;;2.00;;
40793;SDS011;26502;51.886;15.604;2023-03-15T04:17:58;9.30;;;1.80;;
40793;SDS011;26502;51.886;15.604;2023-03-15T04:23:10;10.90;;;2.00;;
40793;SDS011;26502;51.886;15.604;2023-03-15T04:28:30;8.30;;;1.90;;
40793;SDS011;26502;51.886;15.604;2023-03-15T04:33:55;12.70;;;2.90;;
40793;SDS011;26502;51.886;15.604;2023-03-15T04:39:19;8.70;;;2.10;;
40793;SDS011;26502;51.886;15.604;2023-03-15T04:44:46;8.80;;;2.20;;
40793;SDS011;26502;51.886;15.604;2023-03-15T04:50:11;10.60;;;3.50;;
40793;SDS011;26502;51.886;15.604;2023-03-15T04:55:36;11.40;;;3.30;;
40793;SDS011;26502;51.886;15.604;2023-03-15T05:00:42;89.60;;;47.30;;
40793;SDS011;26502;51.886;15.604;2023-03-15T05:06:05;10.30;;;4.60;;
40793;SDS011;26502;51.886;15.604;2023-03-15T05:11:23;9.50;;;2.20;;
40793;SDS011;26502;51.886;15.604;2023-03-15T05:16:45;13.40;;;2.50;;
40793;SDS011;26502;51.886;15.604;2023-03-15T05:22:12;8.00;;;2.30;;
40793;SDS011;26502;51.886;15.604;2023-03-15T05:27:49;8.90;;;2.90;;
40793;SDS011;26502;51.886;15.604;2023-03-15T05:33:22;9.10;;;3.10;;
40793;SDS011;26502;51.886;15.604;2023-03-15T05:38:43;9.50;;;2.80;;
40793;SDS011;26502;51.886;15.604;2023-03-15T05:44:27;15.20;;;3.60;;
40793;SDS011;26502;51.886;15.604;2023-03-15T05:49:58;8.60;;;3.70;;
40793;SDS011;26502;51.886;15.604;2023-03-15T05:55:22;7.00;;;3.20;;
40793;SDS011;26502;51.886;15.604;2023-03-15T06:00:49;14.40;;;3.50;;
40793;SDS011;26502;51.886;15.604;2023-03-15T06:06:08;10.10;;;3.40;;
40793;SDS011;26502;51.886;15.604;2023-03-15T06:11:16;10.80;;;3.60;;
40793;SDS011;26502;51.886;15.604;2023-03-15T06:16:22;11.40;;;3.40;;
40793;SDS011;26502;51.886;15.604;2023-03-15T06:21:30;12.80;;;4.60;;
40793;SDS011;26502;51.886;15.604;2023-03-15T06:26:37;9.90;;;4.00;;
40793;SDS011;26502;51.886;15.604;2023-03-15T06:31:44;7.80;;;3.40;;
40793;SDS011;26502;51.886;15.604;2023-03-15T06:36:51;6.50;;;2.00;;
40793;SDS011;26502;51.886;15.604;2023-03-15T06:41:58;8.30;;;2.00;;
40793;SDS011;26502;51.886;15.604;2023-03-15T06:47:07;12.10;;;2.90;;
40793;SDS011;26502;51.886;15.604;2023-03-15T06:52:14;11.90;;;4.70;;
40793;SDS011;26502;51.886;15.604;2023-03-15T06:57:20;9.50;;;2.80;;
40793;SDS011;26502;51.886;15.604;2023-03-15T07:02:26;11.50;;;3.40;;
40793;SDS011;26502;51.886;15.604;2023-03-15T07:07:38;9.70;;;3.40;;
40793;SDS011;26502;51.886;15.604;2023-03-15T07:12:44;8.00;;;2.90;;
40793;SDS011;26502;51.886;15.604;2023-03-15T07:17:50;10.50;;;2.40;;
40793;SDS011;26502;51.886;15.604;2023-03-15T07:22:57;11.50;;;2.40;;
40793;SDS011;26502;51.886;15.604;2023-03-15T07:28:04;11.70;;;2.70;;
40793;SDS011;26502;51.886;15.604;2023-03-15T07:33:10;10.00;;;3.30;;
40793;SDS011;26502;51.886;15.604;2023-03-15T07:38:16;26.50;;;10.10;;
40793;SDS011;26502;51.886;15.604;2023-03-15T07:43:22;16.10;;;5.50;;
40793;SDS011;26502;51.886;15.604;2023-03-15T07:48:36;8.20;;;2.10;;
40793;SDS011;26502;51.886;15.604;2023-03-15T07:53:43;12.30;;;3.50;;
40793;SDS011;26502;51.886;15.604;2023-03-15T07:58:48;12.70;;;3.70;;
40793;SDS011;26502;51.886;15.604;2023-03-15T08:03:54;11.90;;;3.00;;
40793;SDS011;26502;51.886;15.604;2023-03-15T08:09:01;8.60;;;2.60;;
40793;SDS011;26502;51.886;15.604;2023-03-15T08:14:08;10.00;;;1.80;;
40793;SDS011;26502;51.886;15.604;2023-03-15T08:19:15;9.20;;;2.30;;
40793;SDS011;26502;51.886;15.604;2023-03-15T08:24:21;7.00;;;1.60;;
40793;SDS011;26502;51.886;15.604;2023-03-15T08:29:27;3.40;;;1.60;;
40793;SDS011;26502;51.886;15.604;2023-03-15T08:34:34;11.20;;;2.20;;
40793;SDS011;26502;51.886;15.604;2023-03-15T08:39:40;10.00;;;2.10;;
40793;SDS011;26502;51.886;15.604;2023-03-15T08:44:46;6.10;;;2.00;;
40793;SDS011;26502;51.886;15.604;2023-03-15T08:49:52;13.80;;;3.40;;
40793;SDS011;26502;51.886;15.604;2023-03-15T08:54:58;12.20;;;2.60;;
40793;SDS011;26502;51.886;15.604;2023-03-15T09:00:07;7.90;;;1.80;;
40793;SDS011;26502;51.886;15.604;2023-03-15T09:05:23;8.50;;;1.70;;
40793;SDS011;26502;51.886;15.604;2023-03-15T09:10:29;9.70;;;1.80;;
40793;SDS011;26502;51.886;15.604;2023-03-15T09:15:36;8.00;;;1.70;;
40793;SDS011;26502;51.886;15.604;2023-03-15T09:20:42;8.90;;;2.10;;
40793;SDS011;26502;51.886;15.604;2023-03-15T09:25:48;7.10;;;1.90;;
40793;SDS011;26502;51.886;15.604;2023-03-15T09:30:54;8.40;;;1.90;;
40793;SDS011;26502;51.886;15.604;2023-03-15T09:36:01;10.20;;;2.10;;
40793;SDS011;26502;51.886;15.604;2023-03-15T09:41:12;11.30;;;2.50;;
40793;SDS011;26502;51.886;15.604;2023-03-15T09:46:27;6.30;;;1.80;;
40793;SDS011;26502;51.886;15.604;2023-03-15T09:51:38;7.80;;;2.50;;
40793;SDS011;26502;51.886;15.604;2023-03-15T09:56:52;10.30;;;2.50;;
40793;SDS011;26502;51.886;15.604;2023-03-15T10:02:01;14.00;;;2.30;;
40793;SDS011;26502;51.886;15.604;2023-03-15T10:07:19;9.50;;;2.40;;
40793;SDS011;26502;51.886;15.604;2023-03-15T10:12:28;11.50;;;2.40;;
40793;SDS011;26502;51.886;15.604;2023-03-15T10:17:45;6.30;;;1.70;;
40793;SDS011;26502;51.886;15.604;2023-03-15T10:23:04;6.00;;;1.60;;
40793;SDS011;26502;51.886;15.604;2023-03-15T10:28:19;5.40;;;1.80;;
40793;SDS011;26502;51.886;15.604;2023-03-15T10:33:31;11.20;;;2.10;;
40793;SDS011;26502;51.886;15.604;2023-03-15T10:38:39;14.10;;;3.30;;
40793;SDS011;26502;51.886;15.604;2023-03-15T10:43:47;7.50;;;2.00;;
40793;SDS011;26502;51.886;15.604;2023-03-15T10:49:07;9.50;;;2.60;;
40793;SDS011;26502;51.886;15.604;2023-03-15T10:54:15;7.20;;;2.10;;
40793;SDS011;26502;51.886;15.604;2023-03-15T10:59:23;7.60;;;1.90;;
40793;SDS011;26502;51.886;15.604;2023-03-15T11:04:34;7.20;;;1.70;;
40793;SDS011;26502;51.886;15.604;2023-03-15T11:09:50;6.50;;;1.70;;
40793;SDS011;26502;51.886;15.604;2023-03-15T11:14:58;6.60;;;1.50;;
40793;SDS011;26502;51.886;15.604;2023-03-15T11:20:18;7.10;;;1.90;;
40793;SDS011;26502;51.886;15.604;2023-03-15T11:25:32;6.20;;;2.00;;
40793;SDS011;26502;51.886;15.604;2023-03-15T11:30:38;5.80;;;1.70;;
40793;SDS011;26502;51.886;15.604;2023-03-15T11:35:46;5.50;;;1.90;;
40793;SDS011;26502;51.886;15.604;2023-03-15T11:40:52;7.20;;;1.30;;
40793;SDS011;26502;51.886;15.604;2023-03-15T11:46:00;7.60;;;1.90;;
40793;SDS011;26502;51.886;15.604;2023-03-15T11:51:27;4.40;;;1.90;;
40793;SDS011;26502;51.886;15.604;2023-03-15T11:56:51;6.00;;;1.60;;
40793;SDS011;26502;51.886;15.604;2023-03-15T12:01:59;4.60;;;1.50;;
40793;SDS011;26502;51.886;15.604;2023-03-15T12:07:37;6.00;;;1.90;;
40793;SDS011;26502;51.886;15.604;2023-03-15T12:13:17;8.10;;;2.80;;
40793;SDS011;26502;51.886;15.604;2023-03-15T12:18:27;3.60;;;1.30;;
40793;SDS011;26502;51.886;15.604;2023-03-15T12:23:44;5.20;;;1.50;;
40793;SDS011;26502;51.886;15.604;2023-03-15T12:29:00;8.70;;;1.30;;
40793;SDS011;26502;51.886;15.604;2023-03-15T12:34:11;9.40;;;3.50;;
40793;SDS011;26502;51.886;15.604;2023-03-15T12:39:36;14.50;;;5.60;;
40793;SDS011;26502;51.886;15.604;2023-03-15T12:44:47;17.10;;;7.70;;
40793;SDS011;26502;51.886;15.604;2023-03-15T12:49:53;9.10;;;3.00;;
40793;SDS011;26502;51.886;15.604;2023-03-15T12:55:04;6.20;;;2.10;;
40793;SDS011;26502;51.886;15.604;2023-03-15T13:00:19;10.70;;;5.40;;
40793;SDS011;26502;51.886;15.604;2023-03-15T13:05:29;13.30;;;5.30;;
40793;SDS011;26502;51.886;15.604;2023-03-15T13:10:39;7.50;;;1.80;;
40793;SDS011;26502;51.886;15.604;2023-03-15T13:16:00;3.10;;;1.30;;
40793;SDS011;26502;51.886;15.604;2023-03-15T13:21:22;5.30;;;1.50;;
40793;SDS011;26502;51.886;15.604;2023-03-15T13:26:35;3.70;;;1.60;;
40793;SDS011;26502;51.886;15.604;2023-03-15T13:31:58;7.30;;;1.70;;
40793;SDS011;26502;51.886;15.604;2023-03-15T13:37:13;7.30;;;1.50;;
40793;SDS011;26502;51.886;15.604;2023-03-15T13:42:21;3.80;;;1.20;;
40793;SDS011;26502;51.886;15.604;2023-03-15T13:47:28;4.20;;;1.50;;
40793;SDS011;26502;51.886;15.604;2023-03-15T13:52:33;3.20;;;1.30;;
40793;SDS011;26502;51.886;15.604;2023-03-15T13:57:40;5.20;;;1.20;;
40793;SDS011;26502;51.886;15.604;2023-03-15T14:02:47;5.30;;;1.50;;
40793;SDS011;26502;51.886;15.604;2023-03-15T14:07:59;5.20;;;1.90;;
40793;SDS011;26502;51.886;15.604;2023-03-15T14:13:22;3.30;;;1.80;;
40793;SDS011;26502;51.886;15.604;2023-03-15T14:18:35;8.10;;;3.60;;
40793;SDS011;26502;51.886;15.604;2023-03-15T14:23:42;5.50;;;2.30;;
40793;SDS011;26502;51.886;15.604;2023-03-15T14:28:50;4.90;;;1.60;;
40793;SDS011;26502;51.886;15.604;2023-03-15T14:34:04;8.60;;;3.30;;
40793;SDS011;26502;51.886;15.604;2023-03-15T14:39:16;9.40;;;3.30;;
40793;SDS011;26502;51.886;15.604;2023-03-15T14:44:27;7.90;;;2.80;;
40793;SDS011;26502;51.886;15.604;2023-03-15T14:49:33;8.30;;;2.50;;
40793;SDS011;26502;51.886;15.604;2023-03-15T14:54:46;7.00;;;2.70;;
40793;SDS011;26502;51.886;15.604;2023-03-15T14:59:53;5.10;;;2.00;;
40793;SDS011;26502;51.886;15.604;2023-03-15T15:05:01;4.30;;;1.70;;
40793;SDS011;26502;51.886;15.604;2023-03-15T15:10:10;9.40;;;3.70;;
40793;SDS011;26502;51.886;15.604;2023-03-15T15:15:17;6.20;;;2.50;;
40793;SDS011;26502;51.886;15.604;2023-03-15T15:20:25;4.90;;;2.50;;
40793;SDS011;26502;51.886;15.604;2023-03-15T15:25:31;5.50;;;2.10;;
40793;SDS011;26502;51.886;15.604;2023-03-15T15:30:37;7.20;;;2.40;;
40793;SDS011;26502;51.886;15.604;2023-03-15T15:35:44;4.60;;;1.60;;
40793;SDS011;26502;51.886;15.604;2023-03-15T15:40:50;4.70;;;1.30;;
40793;SDS011;26502;51.886;15.604;2023-03-15T15:45:57;2.50;;;1.30;;
40793;SDS011;26502;51.886;15.604;2023-03-15T15:51:09;5.70;;;1.80;;
40793;SDS011;26502;51.886;15.604;2023-03-15T15:56:25;3.80;;;1.70;;
40793;SDS011;26502;51.886;15.604;2023-03-15T16:01:37;2.90;;;1.70;;
40793;SDS011;26502;51.886;15.604;2023-03-15T16:06:45;5.60;;;1.60;;
40793;SDS011;26502;51.886;15.604;2023-03-15T16:11:55;3.50;;;1.50;;
40793;SDS011;26502;51.886;15.604;2023-03-15T16:17:01;2.90;;;1.70;;
40793;SDS011;26502;51.886;15.604;2023-03-15T16:22:08;6.10;;;2.00;;
40793;SDS011;26502;51.886;15.604;2023-03-15T16:27:15;3.20;;;1.70;;
40793;SDS011;26502;51.886;15.604;2023-03-15T16:32:29;4.80;;;1.90;;
40793;SDS011;26502;51.886;15.604;2023-03-15T16:37:36;3.40;;;1.40;;
40793;SDS011;26502;51.886;15.604;2023-03-15T16:42:42;6.40;;;1.70;;
40793;SDS011;26502;51.886;15.604;2023-03-15T16:47:48;3.50;;;2.20;;
40793;SDS011;26502;51.886;15.604;2023-03-15T16:52:55;5.20;;;1.80;;
40793;SDS011;26502;51.886;15.604;2023-03-15T16:58:11;5.60;;;1.70;;
40793;SDS011;26502;51.886;15.604;2023-03-15T17:03:20;5.80;;;2.00;;
40793;SDS011;26502;51.886;15.604;2023-03-15T17:08:26;3.30;;;1.70;;
40793;SDS011;26502;51.886;15.604;2023-03-15T17:13:32;5.30;;;1.50;;
40793;SDS011;26502;51.886;15.604;2023-03-15T17:18:42;4.40;;;2.10;;
40793;SDS011;26502;51.886;15.604;2023-03-15T17:23:49;4.20;;;1.70;;
40793;SDS011;26502;51.886;15.604;2023-03-15T17:28:56;7.60;;;1.90;;
40793;SDS011;26502;51.886;15.604;2023-03-15T17:34:02;4.90;;;2.00;;
40793;SDS011;26502;51.886;15.604;2023-03-15T17:39:11;6.70;;;2.10;;
40793;SDS011;26502;51.886;15.604;2023-03-15T17:44:20;3.70;;;2.10;;
40793;SDS011;26502;51.886;15.604;2023-03-15T17:49:27;4.90;;;1.80;;
40793;SDS011;26502;51.886;15.604;2023-03-15T17:54:33;5.10;;;1.90;;
40793;SDS011;26502;51.886;15.604;2023-03-15T17:59:39;3.60;;;1.80;;
40793;SDS011;26502;51.886;15.604;2023-03-15T18:04:45;5.60;;;2.40;;
40793;SDS011;26502;51.886;15.604;2023-03-15T18:09:51;5.10;;;2.20;;
40793;SDS011;26502;51.886;15.604;2023-03-15T18:14:58;8.20;;;2.80;;
40793;SDS011;26502;51.886;15.604;2023-03-15T18:20:07;3.50;;;2.00;;
40793;SDS011;26502;51.886;15.604;2023-03-15T18:25:18;6.60;;;2.50;;
40793;SDS011;26502;51.886;15.604;2023-03-15T18:30:27;8.80;;;2.40;;
40793;SDS011;26502;51.886;15.604;2023-03-15T18:35:37;5.90;;;2.80;;
40793;SDS011;26502;51.886;15.604;2023-03-15T18:40:43;6.40;;;2.60;;
40793;SDS011;26502;51.886;15.604;2023-03-15T18:45:50;12.10;;;3.60;;
40793;SDS011;26502;51.886;15.604;2023-03-15T18:50:56;9.10;;;4.20;;
40793;SDS011;26502;51.886;15.604;2023-03-15T18:56:05;12.70;;;6.30;;
40793;SDS011;26502;51.886;15.604;2023-03-15T19:01:16;21.40;;;8.20;;
40793;SDS011;26502;51.886;15.604;2023-03-15T19:11:30;23.10;;;10.80;;
40793;SDS011;26502;51.886;15.604;2023-03-15T19:16:40;19.00;;;10.70;;
40793;SDS011;26502;51.886;15.604;2023-03-15T19:21:46;26.00;;;13.50;;
40793;SDS011;26502;51.886;15.604;2023-03-15T19:26:52;32.00;;;16.20;;
40793;SDS011;26502;51.886;15.604;2023-03-15T19:31:59;37.10;;;17.90;;
40793;SDS011;26502;51.886;15.604;2023-03-15T19:37:06;44.50;;;23.00;;
40793;SDS011;26502;51.886;15.604;2023-03-15T19:42:12;59.80;;;31.00;;
40793;SDS011;26502;51.886;15.604;2023-03-15T19:47:19;72.80;;;35.70;;
40793;SDS011;26502;51.886;15.604;2023-03-15T19:52:25;62.30;;;32.70;;
40793;SDS011;26502;51.886;15.604;2023-03-15T19:57:32;63.80;;;32.10;;
40793;SDS011;26502;51.886;15.604;2023-03-15T20:02:39;65.90;;;33.20;;
40793;SDS011;26502;51.886;15.604;2023-03-15T20:07:46;54.30;;;27.30;;
40793;SDS011;26502;51.886;15.604;2023-03-15T20:12:53;61.30;;;29.90;;
40793;SDS011;26502;51.886;15.604;2023-03-15T20:18:01;67.80;;;34.20;;
40793;SDS011;26502;51.886;15.604;2023-03-15T20:23:10;96.50;;;44.60;;
40793;SDS011;26502;51.886;15.604;2023-03-15T20:28:16;128.50;;;67.10;;
40793;SDS011;26502;51.886;15.604;2023-03-15T20:33:22;133.70;;;66.50;;
40793;SDS011;26502;51.886;15.604;2023-03-15T20:38:28;125.90;;;62.00;;
40793;SDS011;26502;51.886;15.604;2023-03-15T20:43:36;108.60;;;51.70;;
40793;SDS011;26502;51.886;15.604;2023-03-15T20:48:44;107.80;;;50.10;;
40793;SDS011;26502;51.886;15.604;2023-03-15T20:53:50;100.80;;;44.40;;
40793;SDS011;26502;51.886;15.604;2023-03-15T20:58:56;88.00;;;38.80;;
40793;SDS011;26502;51.886;15.604;2023-03-15T21:04:03;78.40;;;32.00;;
40793;SDS011;26502;51.886;15.604;2023-03-15T21:09:09;39.70;;;18.30;;
40793;SDS011;26502;51.886;15.604;2023-03-15T21:14:15;38.20;;;18.20;;
40793;SDS011;26502;51.886;15.604;2023-03-15T21:19:21;31.50;;;14.80;;
40793;SDS011;26502;51.886;15.604;2023-03-15T21:24:30;46.70;;;20.10;;
40793;SDS011;26502;51.886;15.604;2023-03-15T21:29:38;38.40;;;17.70;;
40793;SDS011;26502;51.886;15.604;2023-03-15T21:34:44;36.20;;;16.80;;
40793;SDS011;26502;51.886;15.604;2023-03-15T21:39:50;27.30;;;12.00;;
40793;SDS011;26502;51.886;15.604;2023-03-15T21:44:56;37.80;;;17.10;;
40793;SDS011;26502;51.886;15.604;2023-03-15T21:50:03;58.30;;;21.90;;
40793;SDS011;26502;51.886;15.604;2023-03-15T21:55:10;41.30;;;18.40;;
40793;SDS011;26502;51.886;15.604;2023-03-15T22:00:18;47.80;;;19.20;;
40793;SDS011;26502;51.886;15.604;2023-03-15T22:05:25;57.40;;;24.10;;
40793;SDS011;26502;51.886;15.604;2023-03-15T22:10:31;52.50;;;22.90;;
40793;SDS011;26502;51.886;15.604;2023-03-15T22:15:37;86.00;;;34.50;;
40793;SDS011;26502;51.886;15.604;2023-03-15T22:20:43;93.50;;;36.80;;
40793;SDS011;26502;51.886;15.604;2023-03-15T22:25:51;74.30;;;30.80;;
40793;SDS011;26502;51.886;15.604;2023-03-15T22:30:57;51.80;;;21.90;;
40793;SDS011;26502;51.886;15.604;2023-03-15T22:36:03;39.30;;;17.60;;
40793;SDS011;26502;51.886;15.604;2023-03-15T22:41:10;42.90;;;18.50;;
40793;SDS011;26502;51.886;15.604;2023-03-15T22:46:16;31.10;;;14.60;;
40793;SDS011;26502;51.886;15.604;2023-03-15T22:51:23;33.20;;;16.80;;
40793;SDS011;26502;51.886;15.604;2023-03-15T22:56:29;95.00;;;38.60;;
40793;SDS011;26502;51.886;15.604;2023-03-15T23:01:35;79.70;;;26.30;;
40793;SDS011;26502;51.886;15.604;2023-03-15T23:06:42;151.60;;;46.50;;
40793;SDS011;26502;51.886;15.604;2023-03-15T23:11:48;90.30;;;28.80;;
40793;SDS011;26502;51.886;15.604;2023-03-15T23:16:54;50.10;;;19.00;;
40793;SDS011;26502;51.886;15.604;2023-03-15T23:22:00;50.70;;;19.60;;
40793;SDS011;26502;51.886;15.604;2023-03-15T23:27:07;35.80;;;14.00;;
40793;SDS011;26502;51.886;15.604;2023-03-15T23:32:13;23.60;;;10.30;;
40793;SDS011;26502;51.886;15.604;2023-03-15T23:37:20;63.40;;;21.00;;
40793;SDS011;26502;51.886;15.604;2023-03-15T23:42:26;102.60;;;31.40;;
40793;SDS011;26502;51.886;15.604;2023-03-15T23:47:36;56.50;;;20.70;;
40793;SDS011;26502;51.886;15.604;2023-03-15T23:52:43;56.90;;;22.70;;
40793;SDS011;26502;51.886;15.604;2023-03-15T23:57:49;22.20;;;9.60;;
